sensor_id;sensor_type;location;lat;lon;timestamp;P1;durP1;ratioP1;P2;durP2;ratioP2
51216;SDS011;37283;49.760;8.648;2023-04-15T06:02:31;3.95;;;1.67;;
51216;SDS011;37283;49.760;8.648;2023-04-15T06:04:58;4.88;;;2.13;;
51216;SDS011;37283;49.760;8.648;2023-04-15T06:07:26;6.03;;;2.13;;
51216;SDS011;37283;49.760;8.648;2023-04-15T06:09:52;4.38;;;2.17;;
51216;SDS011;37283;49.760;8.648;2023-04-15T06:12:19;6.22;;;2.10;;
51216;SDS011;37283;49.760;8.648;2023-04-15T06:14:45;6.80;;;2.30;;
51216;SDS011;37283;49.760;8.648;2023-04-15T06:17:12;6.80;;;2.63;;
51216;SDS011;37283;49.760;8.648;2023-04-15T06:19:41;7.95;;;2.85;;
51216;SDS011;37283;49.760;8.648;2023-04-15T06:22:07;5.55;;;2.90;;
51216;SDS011;37283;49.760;8.648;2023-04-15T06:24:34;3.65;;;2.40;;
51216;SDS011;37283;49.760;8.648;2023-04-15T06:27:02;5.90;;;3.05;;
51216;SDS011;37283;49.760;8.648;2023-04-15T06:29:28;6.60;;;3.15;;
51216;SDS011;37283;49.760;8.648;2023-04-15T06:31:55;7.10;;;2.70;;
51216;SDS011;37283;49.760;8.648;2023-04-15T06:34:22;9.77;;;3.22;;
51216;SDS011;37283;49.760;8.648;2023-04-15T06:36:49;7.03;;;3.42;;
51216;SDS011;37283;49.760;8.648;2023-04-15T06:39:15;4.75;;;3.00;;
51216;SDS011;37283;49.760;8.648;2023-04-15T06:41:42;7.88;;;3.47;;
51216;SDS011;37283;49.760;8.648;2023-04-15T06:44:08;4.97;;;2.80;;
51216;SDS011;37283;49.760;8.648;2023-04-15T06:46:35;7.57;;;2.90;;
51216;SDS011;37283;49.760;8.648;2023-04-15T06:49:01;7.85;;;3.00;;
51216;SDS011;37283;49.760;8.648;2023-04-15T06:51:29;6.38;;;3.25;;
51216;SDS011;37283;49.760;8.648;2023-04-15T06:53:56;8.13;;;3.00;;
51216;SDS011;37283;49.760;8.648;2023-04-15T06:56:22;5.13;;;3.00;;
51216;SDS011;37283;49.760;8.648;2023-04-15T06:58:49;9.40;;;4.75;;
51216;SDS011;37283;49.760;8.648;2023-04-15T07:01:15;10.75;;;5.53;;
51216;SDS011;37283;49.760;8.648;2023-04-15T07:03:42;10.32;;;6.20;;
51216;SDS011;37283;49.760;8.648;2023-04-15T07:06:08;13.48;;;6.15;;
51216;SDS011;37283;49.760;8.648;2023-04-15T07:08:35;8.90;;;5.80;;
51216;SDS011;37283;49.760;8.648;2023-04-15T07:11:02;10.57;;;5.78;;
51216;SDS011;37283;49.760;8.648;2023-04-15T07:13:29;12.20;;;5.85;;
51216;SDS011;37283;49.760;8.648;2023-04-15T07:15:56;13.77;;;8.23;;
51216;SDS011;37283;49.760;8.648;2023-04-15T07:18:23;14.02;;;9.02;;
51216;SDS011;37283;49.760;8.648;2023-04-15T07:20:50;15.85;;;9.63;;
51216;SDS011;37283;49.760;8.648;2023-04-15T07:23:16;15.27;;;7.95;;
51216;SDS011;37283;49.760;8.648;2023-04-15T07:25:43;13.25;;;7.72;;
51216;SDS011;37283;49.760;8.648;2023-04-15T07:28:09;13.63;;;7.82;;
51216;SDS011;37283;49.760;8.648;2023-04-15T07:30:36;11.57;;;7.25;;
51216;SDS011;37283;49.760;8.648;2023-04-15T07:33:03;11.52;;;7.00;;
51216;SDS011;37283;49.760;8.648;2023-04-15T07:35:30;9.20;;;4.85;;
51216;SDS011;37283;49.760;8.648;2023-04-15T07:37:56;10.32;;;5.45;;
51216;SDS011;37283;49.760;8.648;2023-04-15T07:40:22;7.22;;;4.10;;
51216;SDS011;37283;49.760;8.648;2023-04-15T07:42:49;10.23;;;4.07;;
51216;SDS011;37283;49.760;8.648;2023-04-15T07:45:16;10.43;;;4.30;;
51216;SDS011;37283;49.760;8.648;2023-04-15T07:47:42;8.35;;;4.40;;
51216;SDS011;37283;49.760;8.648;2023-04-15T07:50:09;7.47;;;3.85;;
51216;SDS011;37283;49.760;8.648;2023-04-15T07:52:36;7.45;;;4.07;;
51216;SDS011;37283;49.760;8.648;2023-04-15T07:55:05;6.88;;;4.25;;
51216;SDS011;37283;49.760;8.648;2023-04-15T07:57:34;6.63;;;4.05;;
51216;SDS011;37283;49.760;8.648;2023-04-15T08:00:01;7.95;;;4.10;;
51216;SDS011;37283;49.760;8.648;2023-04-15T08:02:38;9.60;;;4.93;;
51216;SDS011;37283;49.760;8.648;2023-04-15T08:05:05;7.68;;;4.50;;
51216;SDS011;37283;49.760;8.648;2023-04-15T08:07:32;6.85;;;4.18;;
51216;SDS011;37283;49.760;8.648;2023-04-15T08:10:00;7.70;;;4.65;;
51216;SDS011;37283;49.760;8.648;2023-04-15T08:12:27;7.80;;;4.57;;
51216;SDS011;37283;49.760;8.648;2023-04-15T08:14:54;5.13;;;4.38;;
51216;SDS011;37283;49.760;8.648;2023-04-15T08:17:21;6.10;;;5.00;;
51216;SDS011;37283;49.760;8.648;2023-04-15T08:19:47;7.63;;;5.00;;
51216;SDS011;37283;49.760;8.648;2023-04-15T08:22:14;8.25;;;5.35;;
51216;SDS011;37283;49.760;8.648;2023-04-15T08:24:44;8.10;;;5.85;;
51216;SDS011;37283;49.760;8.648;2023-04-15T08:27:10;8.43;;;6.30;;
51216;SDS011;37283;49.760;8.648;2023-04-15T08:29:37;7.80;;;5.38;;
51216;SDS011;37283;49.760;8.648;2023-04-15T08:32:03;10.13;;;5.70;;
51216;SDS011;37283;49.760;8.648;2023-04-15T08:34:31;8.23;;;5.80;;
51216;SDS011;37283;49.760;8.648;2023-04-15T08:36:57;7.00;;;5.60;;
51216;SDS011;37283;49.760;8.648;2023-04-15T08:39:23;10.15;;;5.57;;
51216;SDS011;37283;49.760;8.648;2023-04-15T08:42:02;10.82;;;5.95;;
51216;SDS011;37283;49.760;8.648;2023-04-15T08:44:33;7.75;;;6.38;;
51216;SDS011;37283;49.760;8.648;2023-04-15T08:47:01;9.88;;;6.47;;
51216;SDS011;37283;49.760;8.648;2023-04-15T08:49:28;9.30;;;6.40;;
51216;SDS011;37283;49.760;8.648;2023-04-15T08:51:56;7.15;;;5.55;;
51216;SDS011;37283;49.760;8.648;2023-04-15T08:54:24;8.00;;;5.90;;
51216;SDS011;37283;49.760;8.648;2023-04-15T08:56:50;7.43;;;5.28;;
51216;SDS011;37283;49.760;8.648;2023-04-15T08:59:18;7.35;;;5.85;;
51216;SDS011;37283;49.760;8.648;2023-04-15T09:01:47;7.88;;;5.82;;
51216;SDS011;37283;49.760;8.648;2023-04-15T09:04:15;6.75;;;4.90;;
51216;SDS011;37283;49.760;8.648;2023-04-15T09:06:42;9.13;;;5.70;;
51216;SDS011;37283;49.760;8.648;2023-04-15T09:09:08;6.80;;;5.50;;
51216;SDS011;37283;49.760;8.648;2023-04-15T09:11:35;5.38;;;4.50;;
51216;SDS011;37283;49.760;8.648;2023-04-15T09:14:02;5.10;;;4.07;;
51216;SDS011;37283;49.760;8.648;2023-04-15T09:16:28;4.55;;;2.90;;
51216;SDS011;37283;49.760;8.648;2023-04-15T09:18:56;5.85;;;2.80;;
51216;SDS011;37283;49.760;8.648;2023-04-15T09:21:22;3.85;;;2.70;;
51216;SDS011;37283;49.760;8.648;2023-04-15T09:23:57;6.78;;;2.75;;
51216;SDS011;37283;49.760;8.648;2023-04-15T09:26:37;4.30;;;2.88;;
51216;SDS011;37283;49.760;8.648;2023-04-15T09:29:08;6.20;;;2.22;;
51216;SDS011;37283;49.760;8.648;2023-04-15T09:31:38;4.93;;;2.33;;
51216;SDS011;37283;49.760;8.648;2023-04-15T09:34:05;6.68;;;2.67;;
51216;SDS011;37283;49.760;8.648;2023-04-15T09:36:37;5.07;;;2.40;;
51216;SDS011;37283;49.760;8.648;2023-04-15T09:39:17;3.42;;;2.38;;
51216;SDS011;37283;49.760;8.648;2023-04-15T09:41:43;4.45;;;2.50;;
51216;SDS011;37283;49.760;8.648;2023-04-15T09:44:28;3.47;;;2.28;;
51216;SDS011;37283;49.760;8.648;2023-04-15T09:46:54;3.25;;;2.30;;
51216;SDS011;37283;49.760;8.648;2023-04-15T09:49:21;4.75;;;2.17;;
51216;SDS011;37283;49.760;8.648;2023-04-15T09:51:48;5.60;;;2.67;;
51216;SDS011;37283;49.760;8.648;2023-04-15T09:54:33;4.47;;;2.20;;
51216;SDS011;37283;49.760;8.648;2023-04-15T09:57:04;4.15;;;2.15;;
51216;SDS011;37283;49.760;8.648;2023-04-15T09:59:32;3.90;;;2.40;;
51216;SDS011;37283;49.760;8.648;2023-04-15T10:01:58;3.13;;;1.85;;
51216;SDS011;37283;49.760;8.648;2023-04-15T10:04:26;3.70;;;1.90;;
51216;SDS011;37283;49.760;8.648;2023-04-15T10:06:53;5.22;;;2.00;;
51216;SDS011;37283;49.760;8.648;2023-04-15T10:09:20;3.45;;;1.80;;
51216;SDS011;37283;49.760;8.648;2023-04-15T10:11:46;4.78;;;1.80;;
51216;SDS011;37283;49.760;8.648;2023-04-15T10:14:14;4.25;;;1.85;;
51216;SDS011;37283;49.760;8.648;2023-04-15T10:16:41;3.53;;;1.73;;
51216;SDS011;37283;49.760;8.648;2023-04-15T10:19:11;4.53;;;1.80;;
51216;SDS011;37283;49.760;8.648;2023-04-15T10:21:37;3.55;;;1.90;;
51216;SDS011;37283;49.760;8.648;2023-04-15T10:24:04;3.17;;;1.80;;
51216;SDS011;37283;49.760;8.648;2023-04-15T10:26:31;3.25;;;1.40;;
51216;SDS011;37283;49.760;8.648;2023-04-15T10:28:58;2.92;;;1.17;;
51216;SDS011;37283;49.760;8.648;2023-04-15T10:31:25;2.42;;;1.30;;
51216;SDS011;37283;49.760;8.648;2023-04-15T10:33:52;2.90;;;1.10;;
51216;SDS011;37283;49.760;8.648;2023-04-15T10:36:18;2.38;;;1.30;;
51216;SDS011;37283;49.760;8.648;2023-04-15T10:38:45;3.90;;;1.13;;
51216;SDS011;37283;49.760;8.648;2023-04-15T10:41:19;1.58;;;1.05;;
51216;SDS011;37283;49.760;8.648;2023-04-15T10:43:54;3.00;;;1.20;;
51216;SDS011;37283;49.760;8.648;2023-04-15T10:46:22;4.50;;;1.10;;
51216;SDS011;37283;49.760;8.648;2023-04-15T10:51:28;2.97;;;1.08;;
51216;SDS011;37283;49.760;8.648;2023-04-15T10:53:56;3.53;;;1.92;;
51216;SDS011;37283;49.760;8.648;2023-04-15T10:56:24;2.13;;;1.50;;
51216;SDS011;37283;49.760;8.648;2023-04-15T10:58:51;2.42;;;1.23;;
51216;SDS011;37283;49.760;8.648;2023-04-15T11:01:18;2.63;;;1.55;;
51216;SDS011;37283;49.760;8.648;2023-04-15T11:03:48;2.35;;;1.48;;
51216;SDS011;37283;49.760;8.648;2023-04-15T11:06:16;3.78;;;1.77;;
51216;SDS011;37283;49.760;8.648;2023-04-15T11:08:52;2.05;;;1.45;;
51216;SDS011;37283;49.760;8.648;2023-04-15T11:14:29;4.70;;;1.73;;
51216;SDS011;37283;49.760;8.648;2023-04-15T11:16:59;2.28;;;1.40;;
51216;SDS011;37283;49.760;8.648;2023-04-15T11:19:25;3.33;;;1.65;;
51216;SDS011;37283;49.760;8.648;2023-04-15T11:21:52;3.67;;;1.73;;
51216;SDS011;37283;49.760;8.648;2023-04-15T11:24:22;3.38;;;1.45;;
51216;SDS011;37283;49.760;8.648;2023-04-15T11:26:58;2.47;;;1.50;;
51216;SDS011;37283;49.760;8.648;2023-04-15T11:29:30;2.65;;;1.40;;
51216;SDS011;37283;49.760;8.648;2023-04-15T11:32:04;2.90;;;1.35;;
51216;SDS011;37283;49.760;8.648;2023-04-15T11:34:32;3.28;;;1.60;;
51216;SDS011;37283;49.760;8.648;2023-04-15T11:37:04;2.75;;;1.67;;
51216;SDS011;37283;49.760;8.648;2023-04-15T11:39:31;3.33;;;1.50;;
51216;SDS011;37283;49.760;8.648;2023-04-15T11:41:57;3.85;;;1.40;;
51216;SDS011;37283;49.760;8.648;2023-04-15T11:44:24;3.30;;;1.70;;
51216;SDS011;37283;49.760;8.648;2023-04-15T11:46:50;3.20;;;1.65;;
51216;SDS011;37283;49.760;8.648;2023-04-15T11:49:25;3.22;;;1.67;;
51216;SDS011;37283;49.760;8.648;2023-04-15T11:51:52;3.20;;;1.60;;
51216;SDS011;37283;49.760;8.648;2023-04-15T11:54:18;3.60;;;1.52;;
51216;SDS011;37283;49.760;8.648;2023-04-15T11:56:49;2.78;;;1.48;;
51216;SDS011;37283;49.760;8.648;2023-04-15T11:59:16;2.20;;;1.40;;
51216;SDS011;37283;49.760;8.648;2023-04-15T12:01:43;2.90;;;1.58;;
51216;SDS011;37283;49.760;8.648;2023-04-15T12:04:15;3.38;;;1.50;;
51216;SDS011;37283;49.760;8.648;2023-04-15T12:06:48;3.65;;;1.80;;
51216;SDS011;37283;49.760;8.648;2023-04-15T12:09:15;3.53;;;1.75;;
51216;SDS011;37283;49.760;8.648;2023-04-15T12:11:43;2.65;;;1.50;;
51216;SDS011;37283;49.760;8.648;2023-04-15T12:16:39;3.42;;;1.67;;
51216;SDS011;37283;49.760;8.648;2023-04-15T12:19:21;3.33;;;1.60;;
51216;SDS011;37283;49.760;8.648;2023-04-15T12:21:57;2.45;;;1.30;;
51216;SDS011;37283;49.760;8.648;2023-04-15T12:24:26;2.08;;;1.25;;
51216;SDS011;37283;49.760;8.648;2023-04-15T12:26:53;4.50;;;1.85;;
51216;SDS011;37283;49.760;8.648;2023-04-15T12:29:26;3.05;;;1.42;;
51216;SDS011;37283;49.760;8.648;2023-04-15T12:31:57;4.03;;;1.50;;
51216;SDS011;37283;49.760;8.648;2023-04-15T12:34:29;4.10;;;1.90;;
51216;SDS011;37283;49.760;8.648;2023-04-15T12:36:57;2.42;;;1.45;;
51216;SDS011;37283;49.760;8.648;2023-04-15T12:39:24;4.65;;;1.60;;
51216;SDS011;37283;49.760;8.648;2023-04-15T12:41:54;3.13;;;1.83;;
51216;SDS011;37283;49.760;8.648;2023-04-15T12:44:21;2.97;;;1.60;;
51216;SDS011;37283;49.760;8.648;2023-04-15T12:46:52;2.27;;;1.30;;
51216;SDS011;37283;49.760;8.648;2023-04-15T12:49:22;4.05;;;1.75;;
51216;SDS011;37283;49.760;8.648;2023-04-15T12:51:53;1.63;;;1.13;;
51216;SDS011;37283;49.760;8.648;2023-04-15T12:54:25;2.97;;;1.35;;
51216;SDS011;37283;49.760;8.648;2023-04-15T12:56:52;2.90;;;1.20;;
51216;SDS011;37283;49.760;8.648;2023-04-15T12:59:19;2.20;;;1.10;;
51216;SDS011;37283;49.760;8.648;2023-04-15T13:01:46;2.22;;;1.20;;
51216;SDS011;37283;49.760;8.648;2023-04-15T13:04:14;1.85;;;0.90;;
51216;SDS011;37283;49.760;8.648;2023-04-15T13:06:41;4.05;;;1.40;;
51216;SDS011;37283;49.760;8.648;2023-04-15T13:09:08;2.33;;;1.20;;
51216;SDS011;37283;49.760;8.648;2023-04-15T13:11:34;2.88;;;1.63;;
51216;SDS011;37283;49.760;8.648;2023-04-15T13:14:05;5.68;;;1.75;;
51216;SDS011;37283;49.760;8.648;2023-04-15T13:16:33;3.22;;;1.95;;
51216;SDS011;37283;49.760;8.648;2023-04-15T13:19:00;3.70;;;2.28;;
51216;SDS011;37283;49.760;8.648;2023-04-15T13:21:27;4.25;;;2.13;;
51216;SDS011;37283;49.760;8.648;2023-04-15T13:23:54;2.88;;;1.90;;
51216;SDS011;37283;49.760;8.648;2023-04-15T13:26:21;3.22;;;2.00;;
51216;SDS011;37283;49.760;8.648;2023-04-15T13:28:48;3.17;;;1.90;;
51216;SDS011;37283;49.760;8.648;2023-04-15T13:31:14;3.00;;;2.28;;
51216;SDS011;37283;49.760;8.648;2023-04-15T13:33:41;2.28;;;1.75;;
51216;SDS011;37283;49.760;8.648;2023-04-15T13:36:07;2.78;;;1.90;;
51216;SDS011;37283;49.760;8.648;2023-04-15T13:38:34;3.58;;;2.00;;
51216;SDS011;37283;49.760;8.648;2023-04-15T13:41:00;3.70;;;1.75;;
51216;SDS011;37283;49.760;8.648;2023-04-15T13:43:27;2.58;;;1.70;;
51216;SDS011;37283;49.760;8.648;2023-04-15T13:45:54;2.80;;;1.90;;
51216;SDS011;37283;49.760;8.648;2023-04-15T13:48:20;4.70;;;1.70;;
51216;SDS011;37283;49.760;8.648;2023-04-15T13:50:47;2.28;;;1.73;;
51216;SDS011;37283;49.760;8.648;2023-04-15T13:53:13;2.70;;;1.60;;
51216;SDS011;37283;49.760;8.648;2023-04-15T13:55:40;2.65;;;1.70;;
51216;SDS011;37283;49.760;8.648;2023-04-15T13:58:08;2.65;;;1.77;;
51216;SDS011;37283;49.760;8.648;2023-04-15T14:00:34;1.75;;;1.45;;
51216;SDS011;37283;49.760;8.648;2023-04-15T14:03:01;3.22;;;1.83;;
51216;SDS011;37283;49.760;8.648;2023-04-15T14:05:28;2.83;;;1.52;;
51216;SDS011;37283;49.760;8.648;2023-04-15T14:07:54;2.10;;;1.58;;
51216;SDS011;37283;49.760;8.648;2023-04-15T14:10:21;2.20;;;1.65;;
51216;SDS011;37283;49.760;8.648;2023-04-15T14:12:47;2.08;;;1.63;;
51216;SDS011;37283;49.760;8.648;2023-04-15T14:15:14;3.05;;;2.00;;
51216;SDS011;37283;49.760;8.648;2023-04-15T14:17:41;2.42;;;1.67;;
51216;SDS011;37283;49.760;8.648;2023-04-15T14:20:08;2.65;;;1.77;;
51216;SDS011;37283;49.760;8.648;2023-04-15T14:22:35;2.08;;;1.52;;
51216;SDS011;37283;49.760;8.648;2023-04-15T14:25:01;2.35;;;1.38;;
51216;SDS011;37283;49.760;8.648;2023-04-15T14:27:28;2.67;;;1.60;;
51216;SDS011;37283;49.760;8.648;2023-04-15T14:29:54;2.60;;;1.48;;
51216;SDS011;37283;49.760;8.648;2023-04-15T14:32:23;2.15;;;1.40;;
51216;SDS011;37283;49.760;8.648;2023-04-15T14:34:51;2.38;;;1.45;;
51216;SDS011;37283;49.760;8.648;2023-04-15T14:37:17;2.80;;;1.35;;
51216;SDS011;37283;49.760;8.648;2023-04-15T14:39:43;2.08;;;1.40;;
51216;SDS011;37283;49.760;8.648;2023-04-15T14:42:10;1.55;;;1.25;;
51216;SDS011;37283;49.760;8.648;2023-04-15T14:44:37;3.47;;;1.25;;
51216;SDS011;37283;49.760;8.648;2023-04-15T14:47:03;2.65;;;1.10;;
51216;SDS011;37283;49.760;8.648;2023-04-15T14:49:30;2.15;;;0.98;;
51216;SDS011;37283;49.760;8.648;2023-04-15T14:51:57;1.42;;;1.23;;
51216;SDS011;37283;49.760;8.648;2023-04-15T14:54:23;2.15;;;1.10;;
51216;SDS011;37283;49.760;8.648;2023-04-15T14:56:50;1.30;;;1.10;;
51216;SDS011;37283;49.760;8.648;2023-04-15T14:59:16;1.20;;;1.02;;
51216;SDS011;37283;49.760;8.648;2023-04-15T15:01:42;2.03;;;1.08;;
51216;SDS011;37283;49.760;8.648;2023-04-15T15:04:09;1.10;;;1.00;;
51216;SDS011;37283;49.760;8.648;2023-04-15T15:06:36;1.83;;;0.98;;
51216;SDS011;37283;49.760;8.648;2023-04-15T15:09:03;1.30;;;0.90;;
51216;SDS011;37283;49.760;8.648;2023-04-15T15:11:30;2.05;;;1.10;;
51216;SDS011;37283;49.760;8.648;2023-04-15T15:13:56;0.88;;;0.80;;
51216;SDS011;37283;49.760;8.648;2023-04-15T15:16:23;1.52;;;1.00;;
51216;SDS011;37283;49.760;8.648;2023-04-15T15:18:50;1.42;;;1.20;;
51216;SDS011;37283;49.760;8.648;2023-04-15T15:21:16;1.30;;;1.00;;
51216;SDS011;37283;49.760;8.648;2023-04-15T15:23:43;1.52;;;1.30;;
51216;SDS011;37283;49.760;8.648;2023-04-15T15:26:10;2.30;;;1.65;;
51216;SDS011;37283;49.760;8.648;2023-04-15T15:28:37;1.60;;;1.20;;
51216;SDS011;37283;49.760;8.648;2023-04-15T15:31:03;2.28;;;1.92;;
51216;SDS011;37283;49.760;8.648;2023-04-15T15:33:30;2.38;;;1.75;;
51216;SDS011;37283;49.760;8.648;2023-04-15T15:35:57;4.38;;;1.40;;
51216;SDS011;37283;49.760;8.648;2023-04-15T15:38:24;1.42;;;1.00;;
51216;SDS011;37283;49.760;8.648;2023-04-15T15:40:51;1.35;;;1.17;;
51216;SDS011;37283;49.760;8.648;2023-04-15T15:43:17;1.25;;;1.10;;
51216;SDS011;37283;49.760;8.648;2023-04-15T15:45:44;1.40;;;1.30;;
51216;SDS011;37283;49.760;8.648;2023-04-15T15:48:11;1.63;;;1.10;;
51216;SDS011;37283;49.760;8.648;2023-04-15T15:50:37;1.48;;;1.15;;
51216;SDS011;37283;49.760;8.648;2023-04-15T15:53:04;1.63;;;1.35;;
51216;SDS011;37283;49.760;8.648;2023-04-15T15:55:30;1.90;;;1.52;;
51216;SDS011;37283;49.760;8.648;2023-04-15T15:57:57;1.90;;;1.30;;
51216;SDS011;37283;49.760;8.648;2023-04-15T16:00:23;1.50;;;1.20;;
51216;SDS011;37283;49.760;8.648;2023-04-15T16:02:52;1.90;;;1.48;;
51216;SDS011;37283;49.760;8.648;2023-04-15T16:05:33;4.05;;;1.77;;
51216;SDS011;37283;49.760;8.648;2023-04-15T16:08:00;3.33;;;2.42;;
51216;SDS011;37283;49.760;8.648;2023-04-15T16:10:26;2.50;;;1.60;;
51216;SDS011;37283;49.760;8.648;2023-04-15T16:12:53;3.65;;;1.95;;
51216;SDS011;37283;49.760;8.648;2023-04-15T16:15:20;2.03;;;1.30;;
51216;SDS011;37283;49.760;8.648;2023-04-15T16:17:48;1.63;;;1.40;;
51216;SDS011;37283;49.760;8.648;2023-04-15T16:20:14;2.90;;;2.00;;
51216;SDS011;37283;49.760;8.648;2023-04-15T16:22:41;7.28;;;4.28;;
51216;SDS011;37283;49.760;8.648;2023-04-15T16:25:07;2.95;;;1.88;;
51216;SDS011;37283;49.760;8.648;2023-04-15T16:27:34;2.28;;;1.90;;
51216;SDS011;37283;49.760;8.648;2023-04-15T16:30:15;3.22;;;2.30;;
51216;SDS011;37283;49.760;8.648;2023-04-15T16:32:41;2.65;;;1.90;;
51216;SDS011;37283;49.760;8.648;2023-04-15T16:35:08;2.90;;;2.10;;
51216;SDS011;37283;49.760;8.648;2023-04-15T16:37:35;2.45;;;1.63;;
51216;SDS011;37283;49.760;8.648;2023-04-15T16:40:02;3.05;;;2.70;;
51216;SDS011;37283;49.760;8.648;2023-04-15T16:42:29;3.80;;;2.42;;
51216;SDS011;37283;49.760;8.648;2023-04-15T16:44:56;2.83;;;2.45;;
51216;SDS011;37283;49.760;8.648;2023-04-15T16:47:22;3.78;;;2.63;;
51216;SDS011;37283;49.760;8.648;2023-04-15T16:49:49;3.78;;;2.63;;
51216;SDS011;37283;49.760;8.648;2023-04-15T16:52:15;3.58;;;2.78;;
51216;SDS011;37283;49.760;8.648;2023-04-15T16:54:42;4.55;;;2.65;;
51216;SDS011;37283;49.760;8.648;2023-04-15T16:57:08;4.38;;;2.30;;
51216;SDS011;37283;49.760;8.648;2023-04-15T16:59:35;3.03;;;2.53;;
51216;SDS011;37283;49.760;8.648;2023-04-15T17:02:01;3.30;;;2.53;;
51216;SDS011;37283;49.760;8.648;2023-04-15T17:04:28;2.72;;;2.30;;
51216;SDS011;37283;49.760;8.648;2023-04-15T17:06:55;4.32;;;2.70;;
51216;SDS011;37283;49.760;8.648;2023-04-15T17:09:21;3.47;;;2.45;;
51216;SDS011;37283;49.760;8.648;2023-04-15T17:11:47;3.50;;;2.92;;
51216;SDS011;37283;49.760;8.648;2023-04-15T17:14:14;4.20;;;3.47;;
51216;SDS011;37283;49.760;8.648;2023-04-15T17:16:41;6.95;;;5.47;;
51216;SDS011;37283;49.760;8.648;2023-04-15T17:19:08;5.38;;;4.38;;
51216;SDS011;37283;49.760;8.648;2023-04-15T17:21:34;3.80;;;3.45;;
51216;SDS011;37283;49.760;8.648;2023-04-15T17:24:01;4.30;;;3.67;;
51216;SDS011;37283;49.760;8.648;2023-04-15T17:26:27;5.15;;;4.00;;
51216;SDS011;37283;49.760;8.648;2023-04-15T17:28:54;3.97;;;3.58;;
51216;SDS011;37283;49.760;8.648;2023-04-15T17:31:21;7.43;;;6.28;;
51216;SDS011;37283;49.760;8.648;2023-04-15T17:33:48;7.75;;;6.07;;
51216;SDS011;37283;49.760;8.648;2023-04-15T17:36:32;5.07;;;4.10;;
51216;SDS011;37283;49.760;8.648;2023-04-15T17:38:59;4.20;;;3.72;;
51216;SDS011;37283;49.760;8.648;2023-04-15T17:41:25;6.00;;;4.40;;
51216;SDS011;37283;49.760;8.648;2023-04-15T17:43:52;4.65;;;4.15;;
51216;SDS011;37283;49.760;8.648;2023-04-15T17:46:18;5.13;;;4.63;;
51216;SDS011;37283;49.760;8.648;2023-04-15T17:48:45;6.30;;;4.40;;
51216;SDS011;37283;49.760;8.648;2023-04-15T17:51:12;5.88;;;4.95;;
51216;SDS011;37283;49.760;8.648;2023-04-15T17:53:39;5.15;;;4.65;;
51216;SDS011;37283;49.760;8.648;2023-04-15T17:56:06;7.25;;;5.10;;
51216;SDS011;37283;49.760;8.648;2023-04-15T17:58:32;7.78;;;5.95;;
51216;SDS011;37283;49.760;8.648;2023-04-15T18:00:59;6.85;;;5.25;;
51216;SDS011;37283;49.760;8.648;2023-04-15T18:03:25;6.07;;;5.47;;
51216;SDS011;37283;49.760;8.648;2023-04-15T18:05:52;5.70;;;5.10;;
51216;SDS011;37283;49.760;8.648;2023-04-15T18:08:19;6.63;;;5.35;;
51216;SDS011;37283;49.760;8.648;2023-04-15T18:10:46;6.10;;;5.50;;
51216;SDS011;37283;49.760;8.648;2023-04-15T18:13:12;6.75;;;6.00;;
51216;SDS011;37283;49.760;8.648;2023-04-15T18:15:39;6.13;;;5.30;;
51216;SDS011;37283;49.760;8.648;2023-04-15T18:18:06;6.88;;;5.68;;
51216;SDS011;37283;49.760;8.648;2023-04-15T18:20:32;5.82;;;5.28;;
51216;SDS011;37283;49.760;8.648;2023-04-15T18:22:59;6.82;;;6.13;;
51216;SDS011;37283;49.760;8.648;2023-04-15T18:25:25;7.13;;;6.10;;
51216;SDS011;37283;49.760;8.648;2023-04-15T18:27:53;6.60;;;5.90;;
51216;SDS011;37283;49.760;8.648;2023-04-15T18:30:19;5.55;;;5.05;;
51216;SDS011;37283;49.760;8.648;2023-04-15T18:32:46;7.05;;;6.28;;
51216;SDS011;37283;49.760;8.648;2023-04-15T18:35:12;6.65;;;5.95;;
51216;SDS011;37283;49.760;8.648;2023-04-15T18:37:39;7.25;;;6.15;;
51216;SDS011;37283;49.760;8.648;2023-04-15T19:29:53;7.90;;;7.10;;
51216;SDS011;37283;49.760;8.648;2023-04-15T19:32:34;8.32;;;7.43;;
51216;SDS011;37283;49.760;8.648;2023-04-15T19:35:14;8.15;;;7.30;;
51216;SDS011;37283;49.760;8.648;2023-04-15T19:38:30;7.95;;;7.07;;
51216;SDS011;37283;49.760;8.648;2023-04-15T19:41:10;8.68;;;7.65;;
51216;SDS011;37283;49.760;8.648;2023-04-15T19:43:44;8.40;;;7.60;;
51216;SDS011;37283;49.760;8.648;2023-04-15T19:46:14;8.10;;;7.15;;
51216;SDS011;37283;49.760;8.648;2023-04-15T19:48:51;8.93;;;8.02;;
51216;SDS011;37283;49.760;8.648;2023-04-15T19:52:03;9.23;;;8.32;;
51216;SDS011;37283;49.760;8.648;2023-04-15T19:54:34;10.30;;;9.23;;
51216;SDS011;37283;49.760;8.648;2023-04-15T19:57:06;11.52;;;9.10;;
51216;SDS011;37283;49.760;8.648;2023-04-15T19:59:52;9.40;;;8.45;;
51216;SDS011;37283;49.760;8.648;2023-04-15T20:02:31;9.45;;;8.35;;
51216;SDS011;37283;49.760;8.648;2023-04-15T20:05:02;8.98;;;8.07;;
51216;SDS011;37283;49.760;8.648;2023-04-15T20:07:32;10.23;;;9.20;;
51216;SDS011;37283;49.760;8.648;2023-04-15T20:10:05;9.50;;;8.55;;
51216;SDS011;37283;49.760;8.648;2023-04-15T20:12:40;9.63;;;8.63;;
51216;SDS011;37283;49.760;8.648;2023-04-15T20:15:18;11.10;;;9.98;;
51216;SDS011;37283;49.760;8.648;2023-04-15T20:17:49;10.07;;;9.07;;
51216;SDS011;37283;49.760;8.648;2023-04-15T20:20:18;11.07;;;8.95;;
51216;SDS011;37283;49.760;8.648;2023-04-15T20:22:49;10.98;;;9.10;;
51216;SDS011;37283;49.760;8.648;2023-04-15T20:25:23;10.38;;;9.00;;
51216;SDS011;37283;49.760;8.648;2023-04-15T20:28:01;11.38;;;9.30;;
51216;SDS011;37283;49.760;8.648;2023-04-15T20:30:35;10.02;;;9.02;;
51216;SDS011;37283;49.760;8.648;2023-04-15T20:33:06;12.85;;;10.57;;
51216;SDS011;37283;49.760;8.648;2023-04-15T20:35:35;10.18;;;9.18;;
51216;SDS011;37283;49.760;8.648;2023-04-15T20:38:04;10.48;;;9.30;;
51216;SDS011;37283;49.760;8.648;2023-04-15T20:40:32;10.40;;;8.55;;
51216;SDS011;37283;49.760;8.648;2023-04-15T20:42:59;10.50;;;8.60;;
51216;SDS011;37283;49.760;8.648;2023-04-15T20:45:26;9.45;;;8.43;;
51216;SDS011;37283;49.760;8.648;2023-04-15T20:47:53;11.45;;;8.43;;
51216;SDS011;37283;49.760;8.648;2023-04-15T20:50:21;9.70;;;8.70;;
51216;SDS011;37283;49.760;8.648;2023-04-15T20:52:48;9.75;;;8.75;;
51216;SDS011;37283;49.760;8.648;2023-04-15T20:55:15;8.95;;;8.00;;
51216;SDS011;37283;49.760;8.648;2023-04-15T20:57:44;9.50;;;8.52;;
51216;SDS011;37283;49.760;8.648;2023-04-15T21:00:11;9.48;;;8.48;;
51216;SDS011;37283;49.760;8.648;2023-04-15T21:02:38;11.35;;;10.15;;
51216;SDS011;37283;49.760;8.648;2023-04-15T21:05:05;9.25;;;8.35;;
51216;SDS011;37283;49.760;8.648;2023-04-15T21:07:33;9.48;;;8.50;;
51216;SDS011;37283;49.760;8.648;2023-04-15T21:10:00;12.10;;;9.38;;
51216;SDS011;37283;49.760;8.648;2023-04-15T21:12:27;10.10;;;9.10;;
51216;SDS011;37283;49.760;8.648;2023-04-15T21:14:55;10.05;;;8.43;;
51216;SDS011;37283;49.760;8.648;2023-04-15T21:17:22;9.45;;;8.55;;
51216;SDS011;37283;49.760;8.648;2023-04-15T21:19:50;10.73;;;9.20;;
51216;SDS011;37283;49.760;8.648;2023-04-15T21:22:17;12.15;;;9.63;;
51216;SDS011;37283;49.760;8.648;2023-04-15T21:24:44;9.45;;;8.20;;
51216;SDS011;37283;49.760;8.648;2023-04-15T21:27:11;10.35;;;9.25;;
51216;SDS011;37283;49.760;8.648;2023-04-15T21:29:38;11.45;;;9.77;;
51216;SDS011;37283;49.760;8.648;2023-04-15T21:32:05;9.70;;;8.77;;
51216;SDS011;37283;49.760;8.648;2023-04-15T21:34:33;10.85;;;9.75;;
51216;SDS011;37283;49.760;8.648;2023-04-15T21:37:00;10.82;;;9.73;;
51216;SDS011;37283;49.760;8.648;2023-04-15T21:39:27;10.73;;;9.60;;
51216;SDS011;37283;49.760;8.648;2023-04-15T21:41:54;11.30;;;9.57;;
51216;SDS011;37283;49.760;8.648;2023-04-15T21:44:22;9.88;;;8.88;;
51216;SDS011;37283;49.760;8.648;2023-04-15T21:46:49;10.02;;;8.95;;
51216;SDS011;37283;49.760;8.648;2023-04-15T21:49:16;10.23;;;9.13;;
51216;SDS011;37283;49.760;8.648;2023-04-15T21:51:43;8.85;;;7.80;;